Fairoaks, Pennsylvania
Current Conditions -  °F | °C
As of 6:51 PM on Thursday 27 Nov 2014 (Local Time) from KPIT Reporting Station
Light Snow Light Snow  
Wind Chill: 22°   Ceiling: 9000
Heat Index: 30°   Visibility: 9mi
Dew Point: 24°   Wind: 9mph
Humidity: 79%   Direction: 270°W
Pressure: 30.17"   Gusts: NA
Location:  40.6018°N, 80.2094°W
Report Text: KPIT 272351Z 27008KT 9SM -SN SCT041 BKN090 BKN120 M01/M04 A3017 RMK AO2 SNB43 SLP238 P0000 60000 T10111044 10011 21011 51020
Loading
Personal Weather Stations






























Interactive Weather Map New forecast layout! Learn more

10-Day Weather Forecast

Advertisements
Track Severe Weather on mobile